createdAt,value
2022-08-03T00:08:58.426Z,97.08
2022-08-03T00:23:59.575Z,97.38
2022-08-03T00:39:00.802Z,98.09
2022-08-03T00:54:02.023Z,98.03
2022-08-03T01:09:03.148Z,96.77
2022-08-03T01:24:04.418Z,96.77
2022-08-03T01:39:05.591Z,95.96
2022-08-03T01:54:06.154Z,97.72
2022-08-03T02:09:06.895Z,99.44
2022-08-03T02:24:08.009Z,97.87
2022-08-03T02:39:09.316Z,98.93
2022-08-03T02:54:10.440Z,99.99
2022-08-03T03:09:11.550Z,99.99
2022-08-03T03:24:12.684Z,99.99
2022-08-03T03:39:15.200Z,99.99
2022-08-03T03:54:17.654Z,99.99
2022-08-03T04:09:19.161Z,99.99
2022-08-03T04:24:19.897Z,99.99
2022-08-03T04:39:21.609Z,99.99
2022-08-03T04:54:22.734Z,99.86
2022-08-03T05:09:50.129Z,95.47
2022-08-03T05:24:29.691Z,76.82
2022-08-03T05:39:30.405Z,66.80
2022-08-03T05:54:56.326Z,60.49
2022-08-03T06:10:35.409Z,58.59
2022-08-03T06:24:53.664Z,56.59
2022-08-03T06:39:52.398Z,53.30
2022-08-03T06:54:53.149Z,52.04
2022-08-03T07:09:57.640Z,50.09
2022-08-03T07:24:58.460Z,48.52
2022-08-03T07:39:59.584Z,46.39
2022-08-03T07:55:00.739Z,45.98
2022-08-03T08:10:01.941Z,43.41
2022-08-03T08:25:03.036Z,41.97
2022-08-03T08:40:03.758Z,40.78
2022-08-03T08:55:03.844Z,40.47
2022-08-03T09:10:12.495Z,39.43
2022-08-03T09:25:25.233Z,39.29
2022-08-03T09:40:16.920Z,38.79
2022-08-03T09:56:32.737Z,38.54
2022-08-03T10:10:30.403Z,37.26
2022-08-03T10:25:33.177Z,37.45
2022-08-03T10:40:51.839Z,39.14
2022-08-03T10:55:40.757Z,38.46
2022-08-03T11:10:41.976Z,40.44
2022-08-03T11:25:55.119Z,39.16
2022-08-03T11:40:49.672Z,37.47
2022-08-03T11:55:50.929Z,36.61
2022-08-03T12:10:52.004Z,36.85
2022-08-03T12:25:53.232Z,37.07
2022-08-03T12:40:56.370Z,38.60
2022-08-03T12:56:05.903Z,36.79
2022-08-03T13:11:03.767Z,37.15
2022-08-03T13:26:04.973Z,37.32
2022-08-03T13:41:06.491Z,36.83
2022-08-03T13:56:06.947Z,37.09
2022-08-03T14:11:08.007Z,36.25
2022-08-03T14:26:09.705Z,36.62
2022-08-03T14:41:12.334Z,35.64
2022-08-03T14:56:15.542Z,36.32
2022-08-03T15:11:16.263Z,36.40
2022-08-03T15:26:32.700Z,39.41
2022-08-03T15:41:23.657Z,36.77
2022-08-03T15:56:24.795Z,40.42
2022-08-03T16:11:28.010Z,37.23
2022-08-03T16:26:28.723Z,36.19
2022-08-03T16:41:53.494Z,37.02
2022-08-03T16:56:39.051Z,38.56
2022-08-03T17:11:46.861Z,41.95
2022-08-03T17:26:49.956Z,41.52
2022-08-03T17:41:51.109Z,46.65
2022-08-03T17:56:52.348Z,48.68
2022-08-03T18:11:53.500Z,53.83
2022-08-03T18:26:55.683Z,57.94
2022-08-03T18:41:57.931Z,60.94
2022-08-03T18:57:00.001Z,65.11
2022-08-03T19:12:11.237Z,66.58
2022-08-03T19:27:06.757Z,71.64
2022-08-03T19:42:20.073Z,72.53
2022-08-03T19:57:18.728Z,74.63
2022-08-03T20:12:20.402Z,76.89
2022-08-03T20:27:30.242Z,80.38
2022-08-03T20:42:31.027Z,83.71
2022-08-03T20:57:33.161Z,85.39
2022-08-03T21:12:33.751Z,87.37
2022-08-03T21:27:34.972Z,87.71
2022-08-03T21:42:36.151Z,88.39
2022-08-03T21:57:38.420Z,88.83
2022-08-03T22:12:40.789Z,93.02
2022-08-03T22:27:41.402Z,93.37
2022-08-03T22:42:41.661Z,93.91
2022-08-03T22:57:41.987Z,94.36
2022-08-03T23:12:42.563Z,96.87
2022-08-03T23:27:43.816Z,96.41
2022-08-03T23:42:45.011Z,97.46
2022-08-03T23:57:46.265Z,99.97
